Terminal Aerodrome Forecast
Issued by NWS

Home | Current Version | Previous Version | Text Only | Print | Product List | Glossary On
Versions: 1 2 3 4 5 6 7 8 9 10 11 12 13 14 15 16 17 18 19 20 21 22
874
FTUS43 KGRB 260747 AAA
TAFAUW
TAF AMD
KAUW 260747Z 2608/2706 23007KT P6SM SCT025 BKN050
      TEMPO 2608/2612 -SN BKN020
     FM261200 22008KT P6SM VCSH OVC020
     FM262100 24012KT P6SM BKN030
     FM270100 26005KT P6SM SCT030 BKN050=

USA.gov is the U.S. government's official web portal to all federal, state and local government web resources and services.